sensor_id;sensor_type;location;lat;lon;timestamp;temperature;humidity
5134;DHT22;2585;48.696;10.066;2023-07-20T00:00:06;17.10;1.00
5134;DHT22;2585;48.696;10.066;2023-07-20T00:02:33;17.10;1.00
5134;DHT22;2585;48.696;10.066;2023-07-20T00:05:00;17.10;1.00
5134;DHT22;2585;48.696;10.066;2023-07-20T00:07:27;17.10;1.00
5134;DHT22;2585;48.696;10.066;2023-07-20T00:09:55;17.10;93.80
5134;DHT22;2585;48.696;10.066;2023-07-20T00:12:22;17.10;1.00
5134;DHT22;2585;48.696;10.066;2023-07-20T00:14:49;17.10;93.70
5134;DHT22;2585;48.696;10.066;2023-07-20T00:17:15;17.10;93.90
5134;DHT22;2585;48.696;10.066;2023-07-20T00:19:50;17.20;92.60
5134;DHT22;2585;48.696;10.066;2023-07-20T00:22:21;17.30;92.10
5134;DHT22;2585;48.696;10.066;2023-07-20T00:24:47;17.30;92.10
5134;DHT22;2585;48.696;10.066;2023-07-20T00:27:16;17.40;90.70
5134;DHT22;2585;48.696;10.066;2023-07-20T00:29:43;17.50;89.70
5134;DHT22;2585;48.696;10.066;2023-07-20T00:32:09;17.50;90.40
5134;DHT22;2585;48.696;10.066;2023-07-20T00:34:36;17.50;89.70
5134;DHT22;2585;48.696;10.066;2023-07-20T00:37:03;17.40;91.10
5134;DHT22;2585;48.696;10.066;2023-07-20T00:39:30;17.40;90.30
5134;DHT22;2585;48.696;10.066;2023-07-20T00:41:57;17.40;91.20
5134;DHT22;2585;48.696;10.066;2023-07-20T00:44:24;17.30;92.20
5134;DHT22;2585;48.696;10.066;2023-07-20T00:46:50;17.20;93.10
5134;DHT22;2585;48.696;10.066;2023-07-20T00:49:18;17.10;93.10
5134;DHT22;2585;48.696;10.066;2023-07-20T00:51:48;17.10;92.60
5134;DHT22;2585;48.696;10.066;2023-07-20T00:54:16;17.00;93.30
5134;DHT22;2585;48.696;10.066;2023-07-20T00:56:43;17.00;93.10
5134;DHT22;2585;48.696;10.066;2023-07-20T00:59:11;17.00;92.60
5134;DHT22;2585;48.696;10.066;2023-07-20T01:01:38;16.90;92.90
5134;DHT22;2585;48.696;10.066;2023-07-20T01:04:05;16.90;93.80
5134;DHT22;2585;48.696;10.066;2023-07-20T01:09:12;17.00;91.60
5134;DHT22;2585;48.696;10.066;2023-07-20T01:14:34;16.90;89.90
5134;DHT22;2585;48.696;10.066;2023-07-20T01:17:02;16.90;88.70
5134;DHT22;2585;48.696;10.066;2023-07-20T01:19:29;16.90;90.30
5134;DHT22;2585;48.696;10.066;2023-07-20T01:21:59;16.80;90.10
5134;DHT22;2585;48.696;10.066;2023-07-20T01:25:02;16.80;84.00
5134;DHT22;2585;48.696;10.066;2023-07-20T01:32:31;16.80;84.20
5134;DHT22;2585;48.696;10.066;2023-07-20T01:34:59;16.80;80.80
5134;DHT22;2585;48.696;10.066;2023-07-20T01:37:30;16.80;81.10
5134;DHT22;2585;48.696;10.066;2023-07-20T01:39:59;16.90;77.20
5134;DHT22;2585;48.696;10.066;2023-07-20T01:42:26;16.90;76.40
5134;DHT22;2585;48.696;10.066;2023-07-20T01:44:53;16.90;74.90
5134;DHT22;2585;48.696;10.066;2023-07-20T01:47:20;16.80;74.60
5134;DHT22;2585;48.696;10.066;2023-07-20T01:49:47;16.70;75.90
5134;DHT22;2585;48.696;10.066;2023-07-20T01:52:14;16.60;77.20
5134;DHT22;2585;48.696;10.066;2023-07-20T01:54:42;16.60;77.40
5134;DHT22;2585;48.696;10.066;2023-07-20T01:57:08;16.60;76.60
5134;DHT22;2585;48.696;10.066;2023-07-20T01:59:35;16.70;76.40
5134;DHT22;2585;48.696;10.066;2023-07-20T02:02:02;16.60;77.90
5134;DHT22;2585;48.696;10.066;2023-07-20T02:04:29;16.60;79.30
5134;DHT22;2585;48.696;10.066;2023-07-20T02:06:56;16.50;79.70
5134;DHT22;2585;48.696;10.066;2023-07-20T02:09:23;16.50;80.10
5134;DHT22;2585;48.696;10.066;2023-07-20T02:11:50;16.40;81.60
5134;DHT22;2585;48.696;10.066;2023-07-20T02:14:16;16.30;81.80
5134;DHT22;2585;48.696;10.066;2023-07-20T02:16:43;16.20;83.30
5134;DHT22;2585;48.696;10.066;2023-07-20T02:19:10;16.20;84.30
5134;DHT22;2585;48.696;10.066;2023-07-20T02:21:37;16.10;86.80
5134;DHT22;2585;48.696;10.066;2023-07-20T02:24:05;15.90;88.10
5134;DHT22;2585;48.696;10.066;2023-07-20T02:26:33;15.80;89.80
5134;DHT22;2585;48.696;10.066;2023-07-20T02:29:00;15.70;91.90
5134;DHT22;2585;48.696;10.066;2023-07-20T02:31:27;15.60;92.50
5134;DHT22;2585;48.696;10.066;2023-07-20T02:33:54;15.50;1.00
5134;DHT22;2585;48.696;10.066;2023-07-20T02:36:20;15.40;1.00
5134;DHT22;2585;48.696;10.066;2023-07-20T02:38:48;15.30;1.00
5134;DHT22;2585;48.696;10.066;2023-07-20T02:41:14;15.10;1.00
5134;DHT22;2585;48.696;10.066;2023-07-20T02:43:41;15.10;1.00
5134;DHT22;2585;48.696;10.066;2023-07-20T02:46:08;15.10;1.00
5134;DHT22;2585;48.696;10.066;2023-07-20T02:48:35;15.10;1.00
5134;DHT22;2585;48.696;10.066;2023-07-20T02:51:02;15.10;1.00
5134;DHT22;2585;48.696;10.066;2023-07-20T02:53:29;15.10;1.00
5134;DHT22;2585;48.696;10.066;2023-07-20T02:55:55;15.00;1.00
5134;DHT22;2585;48.696;10.066;2023-07-20T02:58:22;14.90;1.00
5134;DHT22;2585;48.696;10.066;2023-07-20T03:00:49;14.80;1.00
5134;DHT22;2585;48.696;10.066;2023-07-20T03:03:16;14.80;1.00
5134;DHT22;2585;48.696;10.066;2023-07-20T03:05:43;14.80;1.00
5134;DHT22;2585;48.696;10.066;2023-07-20T03:08:10;14.80;1.00
5134;DHT22;2585;48.696;10.066;2023-07-20T03:10:40;14.90;1.00
5134;DHT22;2585;48.696;10.066;2023-07-20T03:13:07;14.80;1.00
5134;DHT22;2585;48.696;10.066;2023-07-20T03:15:34;14.70;1.00
5134;DHT22;2585;48.696;10.066;2023-07-20T03:18:01;14.70;14.70
5134;DHT22;2585;48.696;10.066;2023-07-20T03:20:31;14.60;13.00
5134;DHT22;2585;48.696;10.066;2023-07-20T03:22:58;14.60;20.90
5134;DHT22;2585;48.696;10.066;2023-07-20T03:25:25;14.50;48.10
5134;DHT22;2585;48.696;10.066;2023-07-20T03:27:54;14.50;66.30
5134;DHT22;2585;48.696;10.066;2023-07-20T03:30:21;14.40;72.10
5134;DHT22;2585;48.696;10.066;2023-07-20T03:32:48;14.30;78.40
5134;DHT22;2585;48.696;10.066;2023-07-20T03:35:15;14.20;85.20
5134;DHT22;2585;48.696;10.066;2023-07-20T03:37:42;14.10;93.00
5134;DHT22;2585;48.696;10.066;2023-07-20T03:40:10;14.00;1.00
5134;DHT22;2585;48.696;10.066;2023-07-20T03:42:37;13.90;1.00
5134;DHT22;2585;48.696;10.066;2023-07-20T03:45:06;13.90;1.00
5134;DHT22;2585;48.696;10.066;2023-07-20T03:47:33;13.80;32.80
5134;DHT22;2585;48.696;10.066;2023-07-20T03:49:59;13.80;37.90
5134;DHT22;2585;48.696;10.066;2023-07-20T03:52:26;13.70;62.50
5134;DHT22;2585;48.696;10.066;2023-07-20T03:54:53;13.70;66.70
5134;DHT22;2585;48.696;10.066;2023-07-20T03:57:20;13.50;80.30
5134;DHT22;2585;48.696;10.066;2023-07-20T03:59:48;13.50;1.00
5134;DHT22;2585;48.696;10.066;2023-07-20T04:02:15;13.50;1.00
5134;DHT22;2585;48.696;10.066;2023-07-20T04:04:42;13.50;1.00
5134;DHT22;2585;48.696;10.066;2023-07-20T04:07:08;13.40;71.20
5134;DHT22;2585;48.696;10.066;2023-07-20T04:09:35;13.40;79.80
5134;DHT22;2585;48.696;10.066;2023-07-20T04:12:02;13.30;1.00
5134;DHT22;2585;48.696;10.066;2023-07-20T04:14:29;13.30;1.00
5134;DHT22;2585;48.696;10.066;2023-07-20T04:16:56;13.30;1.00
5134;DHT22;2585;48.696;10.066;2023-07-20T04:19:23;13.30;1.00
5134;DHT22;2585;48.696;10.066;2023-07-20T04:21:49;13.40;92.00
5134;DHT22;2585;48.696;10.066;2023-07-20T04:24:16;13.30;1.00
5134;DHT22;2585;48.696;10.066;2023-07-20T04:26:43;13.30;65.40
5134;DHT22;2585;48.696;10.066;2023-07-20T04:29:10;13.20;1.00
5134;DHT22;2585;48.696;10.066;2023-07-20T04:31:36;13.20;1.00
5134;DHT22;2585;48.696;10.066;2023-07-20T04:34:03;13.20;38.00
5134;DHT22;2585;48.696;10.066;2023-07-20T04:36:30;13.20;87.60
5134;DHT22;2585;48.696;10.066;2023-07-20T04:38:57;13.20;1.00
5134;DHT22;2585;48.696;10.066;2023-07-20T04:41:23;13.30;1.00
5134;DHT22;2585;48.696;10.066;2023-07-20T04:43:51;13.20;1.00
5134;DHT22;2585;48.696;10.066;2023-07-20T04:46:18;13.20;1.80
5134;DHT22;2585;48.696;10.066;2023-07-20T04:48:46;13.30;1.00
5134;DHT22;2585;48.696;10.066;2023-07-20T04:51:12;13.40;1.00
5134;DHT22;2585;48.696;10.066;2023-07-20T04:53:44;13.40;1.00
5134;DHT22;2585;48.696;10.066;2023-07-20T04:56:24;13.50;83.40
5134;DHT22;2585;48.696;10.066;2023-07-20T04:58:51;13.50;1.00
5134;DHT22;2585;48.696;10.066;2023-07-20T05:01:18;13.60;1.00
5134;DHT22;2585;48.696;10.066;2023-07-20T05:03:45;13.60;66.80
5134;DHT22;2585;48.696;10.066;2023-07-20T05:06:13;13.70;74.50
5134;DHT22;2585;48.696;10.066;2023-07-20T05:08:40;13.80;1.00
5134;DHT22;2585;48.696;10.066;2023-07-20T05:11:07;13.90;74.10
5134;DHT22;2585;48.696;10.066;2023-07-20T05:13:33;14.00;75.00
5134;DHT22;2585;48.696;10.066;2023-07-20T05:16:00;14.10;1.00
5134;DHT22;2585;48.696;10.066;2023-07-20T05:18:27;14.20;1.00
5134;DHT22;2585;48.696;10.066;2023-07-20T05:20:54;14.30;1.00
5134;DHT22;2585;48.696;10.066;2023-07-20T05:23:21;14.40;1.00
5134;DHT22;2585;48.696;10.066;2023-07-20T05:25:56;14.50;1.00
5134;DHT22;2585;48.696;10.066;2023-07-20T05:28:23;14.60;79.90
5134;DHT22;2585;48.696;10.066;2023-07-20T05:30:51;14.80;1.00
5134;DHT22;2585;48.696;10.066;2023-07-20T05:33:21;15.00;83.00
5134;DHT22;2585;48.696;10.066;2023-07-20T05:35:48;15.40;1.00
5134;DHT22;2585;48.696;10.066;2023-07-20T05:38:15;15.50;1.00
5134;DHT22;2585;48.696;10.066;2023-07-20T05:40:43;15.60;93.00
5134;DHT22;2585;48.696;10.066;2023-07-20T05:43:11;15.70;1.00
5134;DHT22;2585;48.696;10.066;2023-07-20T05:45:41;15.80;89.10
5134;DHT22;2585;48.696;10.066;2023-07-20T05:48:09;15.90;74.40
5134;DHT22;2585;48.696;10.066;2023-07-20T05:50:43;16.00;71.20
5134;DHT22;2585;48.696;10.066;2023-07-20T05:53:10;15.90;65.20
5134;DHT22;2585;48.696;10.066;2023-07-20T05:55:37;16.00;61.40
5134;DHT22;2585;48.696;10.066;2023-07-20T05:58:05;15.90;60.20
5134;DHT22;2585;48.696;10.066;2023-07-20T06:00:32;16.00;60.40
5134;DHT22;2585;48.696;10.066;2023-07-20T06:02:59;16.00;35.00
5134;DHT22;2585;48.696;10.066;2023-07-20T06:05:26;16.00;19.60
5134;DHT22;2585;48.696;10.066;2023-07-20T06:07:55;16.00;22.80
5134;DHT22;2585;48.696;10.066;2023-07-20T06:10:24;16.00;25.60
5134;DHT22;2585;48.696;10.066;2023-07-20T06:12:51;16.00;19.40
5134;DHT22;2585;48.696;10.066;2023-07-20T06:15:43;16.10;19.20
5134;DHT22;2585;48.696;10.066;2023-07-20T06:18:10;16.30;8.70
5134;DHT22;2585;48.696;10.066;2023-07-20T06:20:37;16.50;1.00
5134;DHT22;2585;48.696;10.066;2023-07-20T06:23:04;16.70;1.00
5134;DHT22;2585;48.696;10.066;2023-07-20T06:25:31;16.90;1.00
5134;DHT22;2585;48.696;10.066;2023-07-20T06:27:58;17.10;1.00
5134;DHT22;2585;48.696;10.066;2023-07-20T06:30:25;17.20;1.00
5134;DHT22;2585;48.696;10.066;2023-07-20T06:32:52;17.40;1.00
5134;DHT22;2585;48.696;10.066;2023-07-20T06:35:18;17.60;1.00
5134;DHT22;2585;48.696;10.066;2023-07-20T06:37:45;17.70;1.00
5134;DHT22;2585;48.696;10.066;2023-07-20T06:40:12;17.80;1.00
5134;DHT22;2585;48.696;10.066;2023-07-20T06:42:42;18.10;1.00
5134;DHT22;2585;48.696;10.066;2023-07-20T06:45:12;18.20;1.00
5134;DHT22;2585;48.696;10.066;2023-07-20T06:47:39;18.30;1.00
5134;DHT22;2585;48.696;10.066;2023-07-20T06:50:07;18.40;1.00
5134;DHT22;2585;48.696;10.066;2023-07-20T06:52:34;18.70;1.00
5134;DHT22;2585;48.696;10.066;2023-07-20T06:55:01;19.00;94.20
5134;DHT22;2585;48.696;10.066;2023-07-20T06:57:31;19.00;93.10
5134;DHT22;2585;48.696;10.066;2023-07-20T06:59:58;19.10;92.10
5134;DHT22;2585;48.696;10.066;2023-07-20T07:02:25;19.30;91.90
5134;DHT22;2585;48.696;10.066;2023-07-20T07:04:52;19.50;92.10
5134;DHT22;2585;48.696;10.066;2023-07-20T07:07:26;19.50;90.30
5134;DHT22;2585;48.696;10.066;2023-07-20T07:09:53;19.60;90.20
5134;DHT22;2585;48.696;10.066;2023-07-20T07:12:21;19.50;89.00
5134;DHT22;2585;48.696;10.066;2023-07-20T07:14:47;19.70;88.00
5134;DHT22;2585;48.696;10.066;2023-07-20T07:17:14;19.80;87.30
5134;DHT22;2585;48.696;10.066;2023-07-20T07:19:45;20.00;88.60
5134;DHT22;2585;48.696;10.066;2023-07-20T07:22:15;20.30;86.10
5134;DHT22;2585;48.696;10.066;2023-07-20T07:24:42;20.50;84.10
5134;DHT22;2585;48.696;10.066;2023-07-20T07:27:09;20.60;85.10
5134;DHT22;2585;48.696;10.066;2023-07-20T07:29:36;20.90;82.30
5134;DHT22;2585;48.696;10.066;2023-07-20T07:32:03;20.80;81.20
5134;DHT22;2585;48.696;10.066;2023-07-20T07:34:30;21.00;80.90
5134;DHT22;2585;48.696;10.066;2023-07-20T07:37:01;21.00;78.60
5134;DHT22;2585;48.696;10.066;2023-07-20T07:39:28;21.10;78.40
5134;DHT22;2585;48.696;10.066;2023-07-20T07:41:59;21.30;78.00
5134;DHT22;2585;48.696;10.066;2023-07-20T07:44:26;21.30;76.60
5134;DHT22;2585;48.696;10.066;2023-07-20T07:46:53;21.40;75.00
5134;DHT22;2585;48.696;10.066;2023-07-20T07:49:20;21.00;75.10
5134;DHT22;2585;48.696;10.066;2023-07-20T07:51:47;21.10;76.30
5134;DHT22;2585;48.696;10.066;2023-07-20T07:54:14;21.30;73.40
5134;DHT22;2585;48.696;10.066;2023-07-20T07:56:41;21.60;73.30
5134;DHT22;2585;48.696;10.066;2023-07-20T07:59:09;22.00;73.30
5134;DHT22;2585;48.696;10.066;2023-07-20T08:01:36;22.30;74.00
5134;DHT22;2585;48.696;10.066;2023-07-20T08:04:03;21.90;72.00
5134;DHT22;2585;48.696;10.066;2023-07-20T08:06:30;21.90;69.80
5134;DHT22;2585;48.696;10.066;2023-07-20T08:08:58;21.90;68.90
5134;DHT22;2585;48.696;10.066;2023-07-20T08:11:25;21.90;67.50
5134;DHT22;2585;48.696;10.066;2023-07-20T08:13:51;21.70;66.80
5134;DHT22;2585;48.696;10.066;2023-07-20T08:16:18;21.80;66.80
5134;DHT22;2585;48.696;10.066;2023-07-20T08:18:45;22.00;67.90
5134;DHT22;2585;48.696;10.066;2023-07-20T08:21:12;22.70;68.40
5134;DHT22;2585;48.696;10.066;2023-07-20T08:23:39;22.40;67.10
5134;DHT22;2585;48.696;10.066;2023-07-20T08:26:06;22.50;65.50
5134;DHT22;2585;48.696;10.066;2023-07-20T08:28:34;22.40;64.10
5134;DHT22;2585;48.696;10.066;2023-07-20T08:31:01;22.80;64.10
5134;DHT22;2585;48.696;10.066;2023-07-20T08:33:29;22.40;63.20
5134;DHT22;2585;48.696;10.066;2023-07-20T08:36:01;22.60;62.90
5134;DHT22;2585;48.696;10.066;2023-07-20T08:38:28;23.30;63.30
5134;DHT22;2585;48.696;10.066;2023-07-20T08:40:55;23.40;62.50
5134;DHT22;2585;48.696;10.066;2023-07-20T08:43:23;22.90;60.80
5134;DHT22;2585;48.696;10.066;2023-07-20T08:45:54;23.20;61.30
5134;DHT22;2585;48.696;10.066;2023-07-20T08:48:24;24.20;61.60
5134;DHT22;2585;48.696;10.066;2023-07-20T08:50:53;23.80;57.50
5134;DHT22;2585;48.696;10.066;2023-07-20T08:53:24;23.90;57.80
5134;DHT22;2585;48.696;10.066;2023-07-20T08:55:51;24.00;54.00
5134;DHT22;2585;48.696;10.066;2023-07-20T08:58:20;23.80;53.80
5134;DHT22;2585;48.696;10.066;2023-07-20T09:00:47;24.00;48.30
5134;DHT22;2585;48.696;10.066;2023-07-20T09:03:17;23.90;46.30
5134;DHT22;2585;48.696;10.066;2023-07-20T09:05:45;24.10;44.50
5134;DHT22;2585;48.696;10.066;2023-07-20T09:08:12;24.70;44.20
5134;DHT22;2585;48.696;10.066;2023-07-20T09:10:39;24.50;43.50
5134;DHT22;2585;48.696;10.066;2023-07-20T09:13:06;24.00;36.40
5134;DHT22;2585;48.696;10.066;2023-07-20T09:15:35;24.00;39.10
5134;DHT22;2585;48.696;10.066;2023-07-20T09:18:02;24.30;35.70
5134;DHT22;2585;48.696;10.066;2023-07-20T09:20:32;24.60;36.10
5134;DHT22;2585;48.696;10.066;2023-07-20T09:22:59;24.60;34.90
5134;DHT22;2585;48.696;10.066;2023-07-20T09:25:27;24.40;31.20
5134;DHT22;2585;48.696;10.066;2023-07-20T09:27:57;24.70;32.40
5134;DHT22;2585;48.696;10.066;2023-07-20T09:30:51;24.30;30.00
5134;DHT22;2585;48.696;10.066;2023-07-20T09:33:23;24.20;27.10
5134;DHT22;2585;48.696;10.066;2023-07-20T09:35:53;24.40;28.80
5134;DHT22;2585;48.696;10.066;2023-07-20T09:38:23;24.20;28.20
5134;DHT22;2585;48.696;10.066;2023-07-20T09:40:50;24.80;30.40
5134;DHT22;2585;48.696;10.066;2023-07-20T09:43:20;25.40;28.20
5134;DHT22;2585;48.696;10.066;2023-07-20T09:45:50;25.70;27.40
5134;DHT22;2585;48.696;10.066;2023-07-20T09:48:25;25.90;27.30
5134;DHT22;2585;48.696;10.066;2023-07-20T09:50:56;26.10;26.10
5134;DHT22;2585;48.696;10.066;2023-07-20T09:53:24;25.70;20.80
5134;DHT22;2585;48.696;10.066;2023-07-20T09:55:52;26.30;22.90
5134;DHT22;2585;48.696;10.066;2023-07-20T09:58:21;25.90;20.30
5134;DHT22;2585;48.696;10.066;2023-07-20T10:00:51;25.90;19.40
5134;DHT22;2585;48.696;10.066;2023-07-20T10:03:21;25.90;18.90
5134;DHT22;2585;48.696;10.066;2023-07-20T10:05:54;25.90;18.00
5134;DHT22;2585;48.696;10.066;2023-07-20T10:08:27;26.60;19.20
5134;DHT22;2585;48.696;10.066;2023-07-20T10:11:00;25.70;13.50
5134;DHT22;2585;48.696;10.066;2023-07-20T10:13:29;24.90;13.40
5134;DHT22;2585;48.696;10.066;2023-07-20T10:16:27;24.80;14.00
5134;DHT22;2585;48.696;10.066;2023-07-20T10:19:05;25.60;14.30
5134;DHT22;2585;48.696;10.066;2023-07-20T10:21:48;25.60;13.40
5134;DHT22;2585;48.696;10.066;2023-07-20T10:24:22;25.50;12.70
5134;DHT22;2585;48.696;10.066;2023-07-20T10:26:50;25.90;15.00
5134;DHT22;2585;48.696;10.066;2023-07-20T10:29:18;25.50;13.30
5134;DHT22;2585;48.696;10.066;2023-07-20T10:31:46;26.10;14.10
5134;DHT22;2585;48.696;10.066;2023-07-20T10:34:13;27.00;12.20
5134;DHT22;2585;48.696;10.066;2023-07-20T10:36:46;26.50;11.20
5134;DHT22;2585;48.696;10.066;2023-07-20T10:39:32;26.80;11.70
5134;DHT22;2585;48.696;10.066;2023-07-20T10:42:09;26.10;7.40
5134;DHT22;2585;48.696;10.066;2023-07-20T10:44:37;25.70;9.40
5134;DHT22;2585;48.696;10.066;2023-07-20T10:47:12;25.60;8.00
5134;DHT22;2585;48.696;10.066;2023-07-20T10:49:59;25.20;13.60
5134;DHT22;2585;48.696;10.066;2023-07-20T10:52:37;25.40;8.00
5134;DHT22;2585;48.696;10.066;2023-07-20T10:55:17;26.40;9.70
5134;DHT22;2585;48.696;10.066;2023-07-20T10:58:10;27.30;10.70
5134;DHT22;2585;48.696;10.066;2023-07-20T11:00:57;27.60;7.50
5134;DHT22;2585;48.696;10.066;2023-07-20T11:03:39;27.00;8.90
5134;DHT22;2585;48.696;10.066;2023-07-20T11:08:57;27.60;9.10
5134;DHT22;2585;48.696;10.066;2023-07-20T11:11:34;27.30;8.50
5134;DHT22;2585;48.696;10.066;2023-07-20T11:14:09;27.30;9.40
5134;DHT22;2585;48.696;10.066;2023-07-20T11:16:43;26.00;4.70
5134;DHT22;2585;48.696;10.066;2023-07-20T11:19:28;25.80;8.30
5134;DHT22;2585;48.696;10.066;2023-07-20T11:21:58;26.80;8.90
5134;DHT22;2585;48.696;10.066;2023-07-20T11:24:30;27.20;8.00
5134;DHT22;2585;48.696;10.066;2023-07-20T11:26:58;27.70;7.70
5134;DHT22;2585;48.696;10.066;2023-07-20T11:29:25;27.40;3.80
5134;DHT22;2585;48.696;10.066;2023-07-20T11:31:59;26.80;3.50
5134;DHT22;2585;48.696;10.066;2023-07-20T11:34:29;26.90;5.00
5134;DHT22;2585;48.696;10.066;2023-07-20T11:36:56;27.30;5.10
5134;DHT22;2585;48.696;10.066;2023-07-20T11:39:27;27.00;2.50
5134;DHT22;2585;48.696;10.066;2023-07-20T11:41:56;26.50;1.00
5134;DHT22;2585;48.696;10.066;2023-07-20T11:44:26;25.40;1.00
5134;DHT22;2585;48.696;10.066;2023-07-20T11:47:13;25.20;1.00
5134;DHT22;2585;48.696;10.066;2023-07-20T11:49:41;25.90;3.10
5134;DHT22;2585;48.696;10.066;2023-07-20T11:52:14;27.00;5.20
5134;DHT22;2585;48.696;10.066;2023-07-20T11:54:43;28.10;5.30
5134;DHT22;2585;48.696;10.066;2023-07-20T11:57:21;27.70;1.00
5134;DHT22;2585;48.696;10.066;2023-07-20T11:59:57;28.20;1.50
5134;DHT22;2585;48.696;10.066;2023-07-20T12:02:28;27.90;1.00
5134;DHT22;2585;48.696;10.066;2023-07-20T12:04:56;28.00;1.00
5134;DHT22;2585;48.696;10.066;2023-07-20T12:07:26;27.80;1.00
5134;DHT22;2585;48.696;10.066;2023-07-20T12:10:10;26.90;1.00
5134;DHT22;2585;48.696;10.066;2023-07-20T12:12:39;26.80;1.00
5134;DHT22;2585;48.696;10.066;2023-07-20T12:15:23;26.60;1.00
5134;DHT22;2585;48.696;10.066;2023-07-20T12:17:56;25.90;1.00
5134;DHT22;2585;48.696;10.066;2023-07-20T12:20:34;26.90;1.00
5134;DHT22;2585;48.696;10.066;2023-07-20T12:23:09;27.20;1.00
5134;DHT22;2585;48.696;10.066;2023-07-20T12:25:38;26.90;1.00
5134;DHT22;2585;48.696;10.066;2023-07-20T12:28:19;27.10;1.00
5134;DHT22;2585;48.696;10.066;2023-07-20T12:30:47;27.50;1.00
5134;DHT22;2585;48.696;10.066;2023-07-20T12:33:23;26.50;1.00
5134;DHT22;2585;48.696;10.066;2023-07-20T12:35:50;27.50;1.00
5134;DHT22;2585;48.696;10.066;2023-07-20T12:38:17;28.20;3.40
5134;DHT22;2585;48.696;10.066;2023-07-20T12:40:44;28.10;1.00
5134;DHT22;2585;48.696;10.066;2023-07-20T12:43:11;27.50;1.00
5134;DHT22;2585;48.696;10.066;2023-07-20T12:45:38;28.00;1.00
5134;DHT22;2585;48.696;10.066;2023-07-20T12:48:05;27.90;1.00
5134;DHT22;2585;48.696;10.066;2023-07-20T12:50:32;27.80;1.00
5134;DHT22;2585;48.696;10.066;2023-07-20T12:52:58;28.00;1.00
5134;DHT22;2585;48.696;10.066;2023-07-20T12:55:25;26.80;1.00
5134;DHT22;2585;48.696;10.066;2023-07-20T12:57:52;25.90;1.00
5134;DHT22;2585;48.696;10.066;2023-07-20T13:00:19;25.20;1.00
5134;DHT22;2585;48.696;10.066;2023-07-20T13:02:46;26.10;1.00
5134;DHT22;2585;48.696;10.066;2023-07-20T13:05:13;26.50;1.00
5134;DHT22;2585;48.696;10.066;2023-07-20T13:07:41;27.40;1.00
5134;DHT22;2585;48.696;10.066;2023-07-20T13:10:11;27.60;1.00
5134;DHT22;2585;48.696;10.066;2023-07-20T13:12:38;28.60;1.00
5134;DHT22;2585;48.696;10.066;2023-07-20T13:15:07;28.40;1.00
5134;DHT22;2585;48.696;10.066;2023-07-20T13:17:38;28.40;1.00
5134;DHT22;2585;48.696;10.066;2023-07-20T13:20:09;28.00;1.00
5134;DHT22;2585;48.696;10.066;2023-07-20T13:22:37;27.90;1.00
5134;DHT22;2585;48.696;10.066;2023-07-20T13:25:05;28.00;1.00
5134;DHT22;2585;48.696;10.066;2023-07-20T13:27:33;28.40;1.00
5134;DHT22;2585;48.696;10.066;2023-07-20T13:30:00;29.00;1.00
5134;DHT22;2585;48.696;10.066;2023-07-20T13:32:29;28.60;1.00
5134;DHT22;2585;48.696;10.066;2023-07-20T13:35:00;28.40;1.00
5134;DHT22;2585;48.696;10.066;2023-07-20T13:37:27;28.70;1.00
5134;DHT22;2585;48.696;10.066;2023-07-20T13:39:54;28.60;1.00
5134;DHT22;2585;48.696;10.066;2023-07-20T13:42:22;28.20;1.00
5134;DHT22;2585;48.696;10.066;2023-07-20T13:44:49;27.80;1.00
5134;DHT22;2585;48.696;10.066;2023-07-20T13:47:16;27.10;1.00
5134;DHT22;2585;48.696;10.066;2023-07-20T13:49:46;26.60;1.00
5134;DHT22;2585;48.696;10.066;2023-07-20T13:52:14;26.90;1.00
5134;DHT22;2585;48.696;10.066;2023-07-20T13:54:44;27.20;1.00
5134;DHT22;2585;48.696;10.066;2023-07-20T13:57:17;27.00;1.00
5134;DHT22;2585;48.696;10.066;2023-07-20T13:59:44;26.20;1.00
5134;DHT22;2585;48.696;10.066;2023-07-20T14:02:23;25.30;1.00
5134;DHT22;2585;48.696;10.066;2023-07-20T14:05:10;25.80;1.00
5134;DHT22;2585;48.696;10.066;2023-07-20T14:07:39;27.00;1.00
5134;DHT22;2585;48.696;10.066;2023-07-20T14:10:06;27.10;1.00
5134;DHT22;2585;48.696;10.066;2023-07-20T14:12:36;27.50;1.00
5134;DHT22;2585;48.696;10.066;2023-07-20T14:15:04;27.90;1.00
5134;DHT22;2585;48.696;10.066;2023-07-20T14:17:31;28.40;1.00
5134;DHT22;2585;48.696;10.066;2023-07-20T14:19:58;28.10;1.00
5134;DHT22;2585;48.696;10.066;2023-07-20T14:22:25;27.50;1.00
5134;DHT22;2585;48.696;10.066;2023-07-20T14:24:53;27.70;1.00
5134;DHT22;2585;48.696;10.066;2023-07-20T14:27:20;27.50;1.00
5134;DHT22;2585;48.696;10.066;2023-07-20T14:29:47;27.70;1.00
5134;DHT22;2585;48.696;10.066;2023-07-20T14:32:14;27.90;1.00
5134;DHT22;2585;48.696;10.066;2023-07-20T14:34:40;27.50;1.00
5134;DHT22;2585;48.696;10.066;2023-07-20T14:37:07;27.50;1.00
5134;DHT22;2585;48.696;10.066;2023-07-20T14:39:34;27.50;1.00
5134;DHT22;2585;48.696;10.066;2023-07-20T14:42:01;27.30;1.00
5134;DHT22;2585;48.696;10.066;2023-07-20T14:44:30;27.50;1.00
5134;DHT22;2585;48.696;10.066;2023-07-20T14:46:57;27.30;1.00
5134;DHT22;2585;48.696;10.066;2023-07-20T14:49:40;27.60;1.00
5134;DHT22;2585;48.696;10.066;2023-07-20T14:52:07;27.30;1.00
5134;DHT22;2585;48.696;10.066;2023-07-20T14:54:36;27.20;1.00
5134;DHT22;2585;48.696;10.066;2023-07-20T14:57:03;27.10;1.00
5134;DHT22;2585;48.696;10.066;2023-07-20T14:59:31;27.50;1.00
5134;DHT22;2585;48.696;10.066;2023-07-20T15:01:58;27.60;1.00
5134;DHT22;2585;48.696;10.066;2023-07-20T15:04:25;27.20;1.00
5134;DHT22;2585;48.696;10.066;2023-07-20T15:06:53;27.30;1.00
5134;DHT22;2585;48.696;10.066;2023-07-20T15:09:21;27.50;1.00
5134;DHT22;2585;48.696;10.066;2023-07-20T15:11:48;27.00;1.00
5134;DHT22;2585;48.696;10.066;2023-07-20T15:14:15;26.90;1.00
5134;DHT22;2585;48.696;10.066;2023-07-20T15:16:41;26.40;1.00
5134;DHT22;2585;48.696;10.066;2023-07-20T15:19:09;26.40;1.00
5134;DHT22;2585;48.696;10.066;2023-07-20T15:21:36;26.10;1.00
5134;DHT22;2585;48.696;10.066;2023-07-20T15:24:03;26.10;1.00
5134;DHT22;2585;48.696;10.066;2023-07-20T15:26:30;26.10;1.00
5134;DHT22;2585;48.696;10.066;2023-07-20T15:28:58;26.10;1.00
5134;DHT22;2585;48.696;10.066;2023-07-20T15:31:24;26.10;1.00
5134;DHT22;2585;48.696;10.066;2023-07-20T15:33:55;26.30;1.00
5134;DHT22;2585;48.696;10.066;2023-07-20T15:36:22;26.20;1.00
5134;DHT22;2585;48.696;10.066;2023-07-20T15:38:49;25.80;1.00
5134;DHT22;2585;48.696;10.066;2023-07-20T15:41:16;25.60;1.00
5134;DHT22;2585;48.696;10.066;2023-07-20T15:43:43;25.40;1.00
5134;DHT22;2585;48.696;10.066;2023-07-20T15:48:47;25.00;1.00
5134;DHT22;2585;48.696;10.066;2023-07-20T15:51:14;25.10;1.00
5134;DHT22;2585;48.696;10.066;2023-07-20T15:53:41;25.20;1.00
5134;DHT22;2585;48.696;10.066;2023-07-20T15:56:07;25.40;1.00
5134;DHT22;2585;48.696;10.066;2023-07-20T15:58:34;25.40;1.00
5134;DHT22;2585;48.696;10.066;2023-07-20T16:01:01;25.10;1.00
5134;DHT22;2585;48.696;10.066;2023-07-20T16:03:28;24.90;1.00
5134;DHT22;2585;48.696;10.066;2023-07-20T16:06:04;24.70;1.00
5134;DHT22;2585;48.696;10.066;2023-07-20T16:08:31;24.60;1.00
5134;DHT22;2585;48.696;10.066;2023-07-20T16:10:58;24.40;1.00
5134;DHT22;2585;48.696;10.066;2023-07-20T16:13:26;24.60;1.00
5134;DHT22;2585;48.696;10.066;2023-07-20T16:15:54;24.60;1.00
5134;DHT22;2585;48.696;10.066;2023-07-20T16:18:22;24.50;1.00
5134;DHT22;2585;48.696;10.066;2023-07-20T16:20:49;24.60;1.00